Wetterdaten: Juli 2014
Datum Temp Feuchte Luftdruck Regen Wind Richtung Sonnenschein UV Solar Windben
01.07.2014 13,6 C 77 % 1018,5 hPa 0,0 l/m 1,4 km/h N-NW 6,25 h 2,8 UV-I 338 W/m 4,4 km/h
02.07.2014 13,9 C 81 % 1021,7 hPa 0,0 l/m 1,2 km/h N-NW 7,42 h 2,7 UV-I 381 W/m 4,8 km/h
03.07.2014 17,2 C 70 % 1020,6 hPa 0,0 l/m 0,7 km/h S 12,92 h 3,7 UV-I 475 W/m 3,6 km/h
04.07.2014 21,1 C 66 % 1010,0 hPa 0,0 l/m 0,4 km/h S-SO 9,25 h 3,2 UV-I 407 W/m 2,0 km/h
05.07.2014 20,5 C 78 % 1006,8 hPa 0,4 l/m 4,0 km/h S 5,58 h 2,9 UV-I 314 W/m 8,4 km/h
06.07.2014 22,5 C 73 % 1007,2 hPa 0,0 l/m 8,5 km/h S-SO 7,33 h 3,4 UV-I 378 W/m 13,3 km/h
07.07.2014 17,6 C 78 % 1015,5 hPa 4,2 l/m 0,7 km/h NW 5,75 h 2,7 UV-I 304 W/m 4,8 km/h
08.07.2014 15,1 C 96 % 1006,4 hPa 20,6 l/m 7,8 km/h N-NO 0,00 h 1,0 UV-I 82 W/m 19,7 km/h
09.07.2014 13,6 C 98 % 1004,4 hPa 28,4 l/m 0,9 km/h N-NW 0,00 h 0,7 UV-I 45 W/m 6,4 km/h
10.07.2014 18,6 C 91 % 1009,0 hPa 0,4 l/m 1,4 km/h NW 3,58 h 2,9 UV-I 282 W/m 4,0 km/h
11.07.2014 19,0 C 82 % 1011,6 hPa 0,0 l/m 1,0 km/h N 5,50 h 2,5 UV-I 288 W/m 4,4 km/h
12.07.2014 16,0 C 81 % 1011,4 hPa 0,0 l/m 0,1 km/h N 8,75 h 2,8 UV-I 354 W/m 1,2 km/h
13.07.2014 16,9 C 86 % 1006,9 hPa 0,4 l/m 0,8 km/h S-SW 3,42 h 1,9 UV-I 234 W/m 4,0 km/h
14.07.2014 16,7 C 91 % 1012,6 hPa 9,4 l/m 0,9 km/h S-SW 1,33 h 2,1 UV-I 175 W/m 4,8 km/h
15.07.2014 17,8 C 82 % 1019,7 hPa 0,0 l/m 0,6 km/h S-SW 7,08 h 3,2 UV-I 351 W/m 4,8 km/h
16.07.2014 19,6 C 80 % 1020,8 hPa 0,0 l/m 0,5 km/h N-NW 8,68 h 3,1 UV-I 405 W/m 2,0 km/h
17.07.2014 20,5 C 79 % 1020,2 hPa 0,0 l/m 0,0 km/h N-NW 11,17 h 2,9 UV-I 409 W/m 0,0 km/h
18.07.2014 23,8 C 65 % 1016,6 hPa 0,0 l/m 2,7 km/h SO 12,92 h 3,5 UV-I 442 W/m 4,8 km/h
19.07.2014 24,6 C 65 % 1011,9 hPa 0,0 l/m 2,5 km/h SO 12,17 h 3,7 UV-I 453 W/m 6,0 km/h
20.07.2014 22,9 C 72 % 1008,8 hPa 2,0 l/m 3,5 km/h SO 2,50 h 1,5 UV-I 196 W/m 14,9 km/h
21.07.2014 19,9 C 92 % 1011,1 hPa 16,2 l/m 0,4 km/h N-NW 0,33 h 1,2 UV-I 107 W/m 2,4 km/h
22.07.2014 21,5 C 77 % 1016,5 hPa 0,0 l/m 3,8 km/h N 10,58 h 3,2 UV-I 407 W/m 9,7 km/h
23.07.2014 21,6 C 70 % 1016,8 hPa 0,0 l/m 1,2 km/h N-NO 11,42 h 3,2 UV-I 440 W/m 7,3 km/h
24.07.2014 18,7 C 73 % 1015,1 hPa 1,6 l/m 2,2 km/h N-NO 6,92 h 2,4 UV-I 337 W/m 11,3 km/h
25.07.2014 17,0 C 91 % 1013,3 hPa 2,0 l/m 0,0 km/h N-NO 0,00 h 1,1 UV-I 100 W/m 0,0 km/h
26.07.2014 20,5 C 80 % 1012,8 hPa 0,2 l/m 0,0 km/h N-NW 7,17 h 2,5 UV-I 324 W/m 0,8 km/h
27.07.2014 19,9 C 82 % 1014,3 hPa 0,0 l/m 1,3 km/h NW 9,92 h 2,8 UV-I 401 W/m 4,4 km/h
28.07.2014 21,5 C 81 % 1010,8 hPa 12,2 l/m 1,5 km/h O 9,67 h 3,1 UV-I 414 W/m 5,2 km/h
29.07.2014 20,8 C 85 % 1008,0 hPa 17,2 l/m 1,1 km/h N-NO 5,00 h 2,1 UV-I 249 W/m 10,1 km/h
30.07.2014 18,6 C 85 % 1010,7 hPa 1,8 l/m 2,1 km/h N-NW 1,67 h 2,1 UV-I 168 W/m 4,8 km/h
31.07.2014 18,0 C 78 % 1014,1 hPa 0,0 l/m 0,7 km/h NW 9,50 h 3,4 UV-I 421 W/m 4,4 km/h
Min-Datum 02.07.14 19.07.14 09.07.14 15 Tage 01.07.14 - - - - 01.07.14
Min-Zeit 05:25 15:25 11:30 - 00:00 - - - - 00:00
Minimum 5,4 C 36 % 1002,7 hPa - 0,0 km/h - - - - 0,0 km/h
Max-Datum 19.07.14 02.07.14 03.07.14 09.07.14 06.07.14 - 03.07.14 06.07.14 07.07.14 06.07.14
Max-Zeit 15:55 04:45 01:10 15:35 12:10 - 20:05 13:50 14:15 13:35
Maximum 31,7 C 100 % 1023,3 hPa 28,4 l/m 23,6 km/h
S-SO
- 12,83 h 8,0 UV-I 1283 W/m 40,2 km/h
S
Durchschnitt 19,0 C 80 % 1013,0 hPa #117,0 l/m 1,7 km/h N-NW #203:46 h 2,6 UV-I 312 W/m 5,8 km/h

Durchschnitt Minimum Temp.13,7 C
Durchschnitt Maximum Temp.24,4 C